Latest Coastal Weather Observations for Bundaberg

IDQ60701

Issued at 10:42 pm EST Thursday 2 July 2015 (issued every 10 minutes, with the page automatically refreshed every 10 minutes)

About coastal observations | Map of coastal stations | Coastal observations for QLD | Marine services | Other Formats
Station Details ID: 039128 Name: BUNDABERG AERO Lat: -24.91 Lon: 152.32 Height: 30.82 m
Data from the previous 72 hours. | See also: Recent months at Bundaberg
Date/Time
EST
Temp

°C
Wind Pressure Rain
since 9am
mm
Weather Cloud Vis
km
Sea
Height
m
Swell
Dir
 
Speed
knots
Gust
knots
hPa Trend Height
m
Period
s
Dir
02/10:30pm 11.1 S 3 5 1021.0 - 0.0 - - 10 - - - -
02/10:00pm 11.9 SSW 4 6 1020.9 - 0.0 - - 10 - - - -
02/09:30pm 12.9 SW 6 9 1020.8 - 0.0 - - 10 - - - -
02/09:00pm 13.1 SW 6 7 1020.8 - 0.0 - - 10 - - - -
02/08:30pm 13.1 SSW 5 7 1020.6 - 0.0 - - 10 - - - -
02/08:00pm 13.0 S 4 6 1020.5 - 0.0 - - 10 - - - -
02/07:30pm 13.5 S 3 4 1020.3 - 0.0 - - 10 - - - -
02/07:00pm 14.4 SSW 5 7 1020.1 - 0.0 - - 10 - - - -
02/06:30pm 15.1 SSW 7 9 1019.9 - 0.0 - - 10 - - - -
02/06:00pm 15.6 SW 7 9 1019.6 - 0.0 - - 10 - - - -
02/05:30pm 16.5 SW 7 9 1019.2 - 0.0 - - 10 - - - -
02/05:00pm 17.9 SSW 9 12 1019.0 - 0.0 - - 10 - - - -
02/04:30pm 19.2 SW 11 14 1018.9 - 0.0 - - 10 - - - -
02/04:00pm 19.9 SW 10 15 1018.8 - 0.0 - - 10 - - - -
02/03:30pm 20.2 SSW 9 13 1018.7 - 0.0 - - 10 - - - -
02/03:00pm 20.8 SW 11 16 1018.6 - 0.0 - - 10 - - - -
02/02:30pm 20.6 SW 12 17 1018.8 - 0.0 - - 10 - - - -
02/02:00pm 20.6 SW 13 18 1018.9 - 0.0 - - 10 - - - -
02/01:30pm 20.4 SSW 12 16 1019.3 - 0.0 - - 10 - - - -
02/01:00pm 20.1 SW 13 20 1019.8 - 0.0 - - 10 - - - -
02/12:30pm 20.7 SW 12 17 1020.1 - 0.0 - - 10 - - - -
02/12:00pm 20.3 SW 11 17 1020.7 - 0.0 - - 10 - - - -
02/11:30am 19.8 SSW 13 19 1021.5 - 0.0 - - 10 - - - -
02/11:00am 19.3 SW 15 23 1022.2 - 0.0 - - 10 - - - -
02/10:30am 19.0 SSW 11 18 1022.5 - 0.0 - - 10 - - - -
02/10:00am 17.8 SW 9 13 1023.0 - 0.0 - - 10 - - - -
02/09:30am 16.8 SW 10 15 1023.1 - 0.0 - - 10 - - - -
02/09:00am 15.5 SSW 8 12 1023.1 - 0.0 - - 10 - - - -
02/08:30am 14.2 SW 8 11 1023.0 - 0.0 - - 10 - - - -
02/08:00am 13.2 SW 7 11 1022.8 - 0.0 - - 10 - - - -
02/07:30am 12.1 SW 6 8 1022.5 - 0.0 - - 10 - - - -
02/07:00am 11.5 SW 7 9 1022.2 - 0.0 - - 10 - - - -
02/06:30am 11.5 SW 7 10 1021.8 - 0.0 - - 10 - - - -
02/06:00am 11.8 SW 7 9 1021.6 - 0.0 - - 10 - - - -
02/05:30am 12.1 SW 6 8 1021.2 - 0.0 - - 10 - - - -
02/05:00am 12.4 SW 7 9 1021.0 - 0.0 - - 10 - - - -
02/04:30am 12.8 SW 8 11 1021.0 - 0.0 - - 10 - - - -
02/04:00am 12.9 SW 8 11 1021.1 - 0.0 - - 10 - - - -
02/03:30am 13.2 SW 8 11 1021.2 - 0.0 - - 10 - - - -
02/03:00am 13.2 SW 7 10 1021.2 - 0.0 - - 10 - - - -
02/02:30am 13.5 SW 7 9 1021.1 - 0.0 - - 10 - - - -
02/02:00am 13.7 SW 7 9 1021.3 - 0.0 - - 10 - - - -
02/01:30am 13.8 SW 7 9 1021.6 - 0.0 - - 10 - - - -
02/01:00am 14.0 SW 6 8 1021.7 - 0.0 - - 10 - - - -
02/12:36am 14.3 SW 6 8 1021.7 - 0.0 - - 10 - - - -
02/12:30am 14.3 SW 6 8 1021.7 - 0.0 - - 10 - - - -
02/12:20am 14.5 SW 6 8 1021.8 - 0.0 - - 5 - - - -
02/12:00am 14.9 SSW 6 9 1021.9 - 0.0 - - 10 - - - -
 
Date/Time
EST
Temp

°C
Wind Pressure Rain
since 9am
mm
Weather Cloud Vis
km
Sea
Height
m
Swell
Dir
 
Speed
knots
Gust
knots
hPa Trend Height
m
Period
s
Dir
01/11:30pm 14.6 SW 5 6 1022.2 - 0.0 - - 10 - - - -
01/11:00pm 14.3 CALM 0 0 1022.5 - 0.0 - - 10 - - - -
01/10:30pm 16.1 SSW 4 5 1022.7 - 0.0 - - 10 - - - -
01/10:00pm 16.4 SSW 4 6 1022.8 - 0.0 - - 10 - - - -
01/09:30pm 15.7 SSW 4 6 1022.9 - 0.0 - Partly cloudy 10 - - - -
01/09:00pm 16.3 SW 5 6 1022.7 - 0.0 - Partly cloudy 10 - - - -
01/08:30pm 16.6 WSW 6 7 1022.4 - 0.0 - Partly cloudy 10 - - - -
01/08:00pm 16.0 WSW 4 6 1022.3 - 0.0 - Partly cloudy 10 - - - -
01/07:30pm 17.0 SSW 4 5 1021.9 - 0.0 - Partly cloudy 10 - - - -
01/07:00pm 17.6 CALM 0 4 1021.6 - 0.0 - Partly cloudy 10 - - - -
01/06:30pm 18.4 CALM 0 0 1021.2 - 0.0 - Partly cloudy 10 - - - -
01/06:00pm 18.6 N 1 4 1021.0 - 0.0 - Mostly cloudy 10 - - - -
01/05:30pm 19.9 ENE 4 5 1020.8 - 0.0 - Partly cloudy 10 - - - -
01/05:00pm 20.9 ENE 4 5 1020.6 - 0.0 - - 10 - - - -
01/04:30pm 22.3 E 7 9 1020.3 - 0.0 - Partly cloudy 10 - - - -
01/04:00pm 22.8 ESE 8 10 1020.1 - 0.0 - - 10 - - - -
01/03:30pm 23.7 SW 6 9 1020.2 - 0.0 - - 10 - - - -
01/03:00pm 23.9 SW 4 5 1020.3 - 0.0 - - 10 - - - -
01/02:30pm 23.2 S 5 7 1020.4 - 0.0 - - 10 - - - -
01/02:00pm 24.5 SW 3 6 1020.7 - 0.0 - Partly cloudy 10 - - - -
01/01:30pm 23.5 SSE 5 8 1020.9 - 0.0 - Partly cloudy 10 - - - -
01/01:00pm 23.3 SSE 3 6 1021.4 - 0.0 - Partly cloudy 10 - - - -
01/12:30pm 23.0 SSE 5 9 1021.8 - 0.0 - Partly cloudy 10 - - - -
01/12:00pm 23.5 SE 6 12 1022.4 - 0.0 - - 10 - - - -
01/11:30am 22.8 S 6 9 1023.0 - 0.0 - - 10 - - - -
01/11:00am 22.5 S 5 9 1023.6 - 0.0 - - 10 - - - -
01/10:30am 21.7 S 7 10 1023.9 - 0.0 - - 10 - - - -
01/10:00am 21.1 S 7 9 1024.1 - 0.0 - - 10 - - - -
01/09:30am 20.3 S 6 9 1024.5 - 0.0 - - 10 - - - -
01/09:00am 19.4 S 7 9 1024.5 - 0.0 - - 10 - - - -
01/08:30am 17.5 SSW 5 7 1024.2 - 0.0 - - 10 - - - -
01/08:00am 16.2 SSW 5 7 1024.2 - 0.0 - - 10 - - - -
01/07:30am 15.4 SSW 4 6 1023.9 - 0.0 - - 10 - - - -
01/07:00am 14.7 SSW 5 7 1023.6 - 0.0 - - 10 - - - -
01/06:30am 14.3 SSW 5 7 1023.5 - 0.0 - - 10 - - - -
01/06:00am 14.5 SSW 6 7 1023.3 - 0.0 - - 10 - - - -
01/05:30am 14.5 SW 5 6 1023.1 - 0.0 - - 10 - - - -
01/05:00am 15.2 SSW 7 9 1023.0 - 0.0 - Partly cloudy 10 - - - -
01/04:30am 15.5 S 7 9 1022.8 - 0.0 - Cloudy 10 - - - -
01/04:00am 15.5 S 6 8 1022.8 - 0.0 - - 10 - - - -
01/03:30am 15.5 SSE 6 8 1022.7 - 0.0 - - 10 - - - -
01/03:00am 15.8 S 5 7 1022.9 - 0.0 - Cloudy 10 - - - -
01/02:30am 15.9 S 6 8 1023.0 - 0.0 - - 10 - - - -
01/02:00am 15.7 S 6 8 1023.4 - 0.0 - - 10 - - - -
01/01:30am 15.8 SSE 5 7 1023.4 - 0.0 - - 10 - - - -
01/01:00am 15.9 SSE 5 6 1023.9 - 0.0 - - 10 - - - -
01/12:30am 15.5 SE 5 7 1024.1 - 0.0 - - 10 - - - -
01/12:00am 16.3 S 6 7 1024.5 - 0.0 - Partly cloudy 10 - - - -
 
Date/Time
EST
Temp

°C
Wind Pressure Rain
since 9am
mm
Weather Cloud Vis
km
Sea
Height
m
Swell
Dir
 
Speed
knots
Gust
knots
hPa Trend Height
m
Period
s
Dir
30/11:30pm 16.7 SSE 4 5 1024.6 - 0.0 - Cloudy 10 - - - -
30/11:00pm 16.9 S 5 7 1024.9 - 0.0 - - 10 - - - -
30/10:30pm 16.8 S 5 7 1024.9 - 0.0 - - 10 - - - -
30/10:00pm 16.9 SSE 5 6 1025.0 - 0.0 - - 10 - - - -
30/09:30pm 17.1 S 5 7 1025.0 - 0.0 - Partly cloudy 10 - - - -
30/09:00pm 17.3 SSE 5 7 1025.0 - 0.0 - Cloudy 10 - - - -
30/08:30pm 17.2 SSE 5 6 1024.7 - 0.0 - - 10 - - - -
30/08:00pm 17.9 SSE 5 7 1024.5 - 0.0 - - 10 - - - -
30/07:30pm 17.8 S 5 6 1024.4 - 0.0 - - 10 - - - -
30/07:00pm 18.2 SSE 3 4 1024.3 - 0.0 - Cloudy 10 - - - -
30/06:30pm 18.8 SSE 4 5 1024.1 - 0.0 - Cloudy 10 - - - -
30/06:00pm 19.1 SSE 4 5 1023.8 - 0.0 - Cloudy 10 - - - -
30/05:30pm 19.4 SSE 3 5 1023.6 - 0.0 - Cloudy 10 - - - -
30/05:00pm 20.1 ESE 5 6 1023.3 - 0.0 - Cloudy 10 - - - -
30/04:30pm 20.4 ESE 6 8 1023.5 - 0.0 - Cloudy 10 - - - -
30/04:00pm 20.6 E 8 11 1023.5 - 0.0 - Partly cloudy 10 - - - -
30/03:30pm 21.3 E 10 13 1023.4 - 0.0 - Partly cloudy 10 - - - -
30/03:00pm 21.9 E 10 13 1023.3 - 0.0 - Cloudy 10 - - - -
30/02:30pm 22.1 ESE 11 13 1023.3 - 0.0 - Partly cloudy 10 - - - -
30/02:00pm 22.3 E 12 15 1023.4 - 0.0 - Partly cloudy 10 - - - -
30/01:30pm 22.5 E 13 17 1023.6 - 0.0 - Partly cloudy 10 - - - -
30/01:00pm 22.7 ESE 13 17 1024.0 - 0.0 - Partly cloudy 10 - - - -
30/12:30pm 22.7 ESE 12 16 1024.5 - 0.0 - Partly cloudy 10 - - - -
30/12:00pm 22.4 ESE 13 18 1025.0 - 0.0 - Cloudy 10 - - - -
30/11:30am 23.4 ESE 14 20 1025.3 - 0.0 - Partly cloudy 10 - - - -
30/11:00am 22.7 SE 13 18 1025.5 - 0.0 - Partly cloudy 10 - - - -
30/10:30am 22.3 SE 12 15 1025.9 - 0.0 - - 10 - - - -
30/10:00am 20.9 SE 12 18 1026.1 - 0.0 - - 10 - - - -
30/09:30am 19.4 SE 11 16 1026.3 - 0.0 - - 10 - - - -
30/09:00am 18.1 SSE 9 14 1026.7 - 0.0 - - 10 - - - -
30/08:30am 17.2 S 8 13 1026.8 - 0.0 - - 10 - - - -
30/08:00am 16.1 S 8 10 1026.5 - 0.0 - - 10 - - - -
30/07:30am 15.2 SSE 8 12 1026.2 - 0.0 - - 10 - - - -
30/07:00am 14.7 SSE 7 10 1025.7 - 0.0 - - 10 - - - -
30/06:30am 14.7 SSE 7 10 1025.3 - 0.0 - - 10 - - - -
30/06:00am 14.6 SSE 8 11 1025.0 - 0.0 - - 10 - - - -
30/05:30am 14.5 SSE 7 9 1025.0 - 0.0 - - 10 - - - -
30/05:00am 14.6 SSE 7 11 1025.0 - 0.0 - - 10 - - - -
30/04:30am 14.7 SSE 7 9 1025.0 - 0.0 - - 10 - - - -
30/04:00am 14.6 SSE 6 9 1025.2 - 0.0 - - 10 - - - -
30/03:30am 14.6 S 7 12 1025.6 - 0.0 - - 10 - - - -
30/03:00am 14.6 S 6 9 1025.8 - 0.0 - - 10 - - - -
30/02:30am 14.6 S 7 10 1025.9 - 0.0 - - 10 - - - -
30/02:00am 14.6 S 7 10 1026.1 - 0.0 - Partly cloudy 10 - - - -
30/01:30am 14.6 S 6 8 1026.4 - 0.0 - Partly cloudy 10 - - - -
30/01:00am 14.7 S 6 8 1026.6 - 0.0 - - 10 - - - -
30/12:30am 14.9 S 6 9 1026.6 - 0.0 - - 10 - - - -
30/12:00am 15.0 S 6 9 1026.7 - 0.0 - - 10 - - - -
 
Date/Time
EST
Temp

°C
Wind Pressure Rain
since 9am
mm
Weather Cloud Vis
km
Sea
Height
m
Swell
Dir
 
Speed
knots
Gust
knots
hPa Trend Height
m
Period
s
Dir
29/11:30pm 15.2 S 7 10 1026.9 - 0.0 - Partly cloudy 10 - - - -
29/11:00pm 15.3 S 6 9 1027.1 - 0.0 - - 10 - - - -

Other Formats:

Comma delimited format used in spreadsheet applications
http://www.bom.gov.au/fwo/IDQ60701/IDQ60701.94387.axf

JavaScript Object Notation format (JSON) in row-major order
http://www.bom.gov.au/fwo/IDQ60701/IDQ60701.94387.json